createdAt,value
2023-02-27T00:01:51.565Z,98941.35
2023-02-27T00:04:25.976Z,98947.30
2023-02-27T00:07:13.568Z,98947.00
2023-02-27T00:09:54.618Z,98948.56
2023-02-27T00:12:39.224Z,98951.56
2023-02-27T00:15:23.630Z,98949.46
2023-02-27T00:18:05.749Z,98953.24
2023-02-27T00:20:46.586Z,98956.77
2023-02-27T00:23:28.857Z,98961.59
2023-02-27T00:26:10.561Z,98959.22
2023-02-27T00:28:51.681Z,98966.05
2023-02-27T00:31:32.643Z,98962.61
2023-02-27T00:34:27.646Z,98959.48
2023-02-27T00:37:15.578Z,98958.03
2023-02-27T00:39:51.431Z,98952.86
2023-02-27T00:42:39.571Z,98947.47
2023-02-27T00:45:14.683Z,98943.94
2023-02-27T00:48:02.644Z,98946.67
2023-02-27T00:50:44.516Z,98950.98
2023-02-27T00:53:39.530Z,98958.96
2023-02-27T00:56:27.582Z,98961.14
2023-02-27T00:59:02.716Z,98963.80
2023-02-27T01:01:51.575Z,98962.27
2023-02-27T01:04:26.709Z,98963.73
2023-02-27T01:07:15.535Z,98968.19
2023-02-27T01:09:57.580Z,98969.36
2023-02-27T01:12:45.538Z,98972.20
2023-02-27T01:15:20.751Z,98965.45
2023-02-27T01:18:08.595Z,98964.00
2023-02-27T01:20:43.720Z,98965.90
2023-02-27T01:23:31.661Z,98969.69
2023-02-27T01:26:06.689Z,98971.02
2023-02-27T01:28:54.626Z,98970.75
2023-02-27T01:31:36.660Z,98974.05
2023-02-27T01:34:34.114Z,98978.90
2023-02-27T01:37:22.561Z,98980.83
2023-02-27T01:39:57.661Z,98981.27
2023-02-27T01:42:45.525Z,98989.34
2023-02-27T01:45:40.909Z,98994.08
2023-02-27T01:48:32.536Z,98988.86
2023-02-27T01:51:28.765Z,98990.40
2023-02-27T01:54:17.533Z,98996.64
2023-02-27T01:56:51.869Z,98998.33
2023-02-27T01:59:41.526Z,98997.71
2023-02-27T02:02:30.720Z,98998.10
2023-02-27T02:05:19.529Z,98997.70
2023-02-27T02:07:54.649Z,99000.78
2023-02-27T02:10:42.536Z,99001.88
2023-02-27T02:13:24.541Z,99000.30
2023-02-27T02:16:34.586Z,98998.64
2023-02-27T02:19:35.532Z,98999.98
2023-02-27T02:22:54.545Z,99000.86
2023-02-27T02:26:37.604Z,98993.84
2023-02-27T02:29:54.542Z,98998.65
2023-02-27T02:32:56.649Z,99001.59
2023-02-27T02:36:05.537Z,99005.13
2023-02-27T02:38:58.643Z,99015.93
2023-02-27T02:41:46.535Z,99014.34
2023-02-27T02:44:42.682Z,99009.64
2023-02-27T02:47:29.545Z,99013.95
2023-02-27T02:50:17.584Z,99012.73
2023-02-27T02:52:59.344Z,99017.95
2023-02-27T02:56:03.529Z,99027.39
2023-02-27T02:58:46.359Z,99028.64
2023-02-27T03:01:43.556Z,99027.09
2023-02-27T03:04:45.571Z,99024.61
2023-02-27T03:07:40.576Z,99027.08
2023-02-27T03:10:56.887Z,99027.89
2023-02-27T03:13:48.506Z,99031.80
2023-02-27T03:16:34.756Z,99042.13
2023-02-27T03:19:42.522Z,99042.27
2023-02-27T03:22:22.914Z,99047.11
2023-02-27T03:25:11.493Z,99048.53
2023-02-27T03:27:51.662Z,99050.36
2023-02-27T03:31:10.044Z,99054.60
2023-02-27T03:34:02.526Z,99058.93
2023-02-27T03:37:07.211Z,99060.93
2023-02-27T03:39:59.496Z,99067.77
2023-02-27T03:42:39.883Z,99071.90
2023-02-27T03:45:38.502Z,99074.89
2023-02-27T03:48:13.048Z,99080.63
2023-02-27T03:51:00.589Z,99080.71
2023-02-27T03:53:48.873Z,99078.41
2023-02-27T03:56:42.499Z,99081.30
2023-02-27T03:59:17.360Z,99084.09
2023-02-27T04:02:06.562Z,99087.00
2023-02-27T04:04:40.942Z,99087.98
2023-02-27T04:07:34.500Z,99090.38
2023-02-27T04:10:37.504Z,99087.33
2023-02-27T04:13:35.653Z,99090.17
2023-02-27T04:16:41.506Z,99091.80
2023-02-27T04:19:36.640Z,99096.71
2023-02-27T04:22:20.549Z,99099.30
2023-02-27T04:25:26.492Z,99103.99
2023-02-27T04:28:26.520Z,99104.95
2023-02-27T04:31:13.762Z,99112.56
2023-02-27T04:34:20.551Z,99112.56
2023-02-27T04:37:27.504Z,99110.80
2023-02-27T04:40:19.537Z,99117.61
2023-02-27T04:42:58.669Z,99125.90
2023-02-27T04:45:48.586Z,99123.77
2023-02-27T04:48:29.729Z,99124.96
2023-02-27T04:51:21.505Z,99126.27
2023-02-27T04:54:18.502Z,99125.92
2023-02-27T04:57:16.495Z,99127.10
2023-02-27T05:00:06.507Z,99126.87
2023-02-27T05:02:43.739Z,99133.30
2023-02-27T05:05:33.493Z,99134.43
2023-02-27T05:08:16.842Z,99131.77
2023-02-27T05:11:36.535Z,99139.31
2023-02-27T05:14:23.492Z,99135.84
2023-02-27T05:17:52.523Z,99137.33
2023-02-27T05:20:35.498Z,99138.00
2023-02-27T05:23:28.473Z,99140.58
2023-02-27T05:26:22.492Z,99143.70
2023-02-27T05:29:24.479Z,99146.96
2023-02-27T05:32:21.616Z,99151.44
2023-02-27T05:35:22.494Z,99150.81
2023-02-27T05:38:17.483Z,99153.22
2023-02-27T05:40:56.598Z,99159.09
2023-02-27T05:44:13.606Z,99160.88
2023-02-27T05:46:51.621Z,99162.55
2023-02-27T05:49:44.562Z,99164.64
2023-02-27T05:52:22.616Z,99166.20
2023-02-27T05:55:18.830Z,99167.00
2023-02-27T05:58:00.693Z,99167.38
2023-02-27T06:01:11.470Z,99168.96
2023-02-27T06:03:47.663Z,99177.98
2023-02-27T06:06:37.486Z,99178.89
2023-02-27T06:09:12.597Z,99185.40
2023-02-27T06:12:00.485Z,99184.23
2023-02-27T06:14:35.605Z,99182.23
2023-02-27T06:17:23.476Z,99185.54
2023-02-27T06:19:57.608Z,99186.75
2023-02-27T06:22:45.464Z,99186.77
2023-02-27T06:25:28.490Z,99190.84
2023-02-27T06:28:23.472Z,99186.17
2023-02-27T06:31:11.501Z,99190.20
2023-02-27T06:33:46.696Z,99194.33
2023-02-27T06:36:41.494Z,99194.83
2023-02-27T06:39:23.142Z,99201.38
2023-02-27T06:42:11.529Z,99199.88
2023-02-27T06:44:45.946Z,99199.51
2023-02-27T06:47:33.473Z,99201.69
2023-02-27T06:50:11.365Z,99200.19
2023-02-27T06:52:59.515Z,99199.17
2023-02-27T06:55:34.139Z,99199.08
2023-02-27T06:58:22.473Z,99195.70
2023-02-27T07:01:00.166Z,99196.82
2023-02-27T07:03:48.474Z,99202.77
2023-02-27T07:07:33.347Z,99202.85
2023-02-27T07:09:30.647Z,99205.38
2023-02-27T07:12:13.457Z,99203.90
2023-02-27T07:15:01.517Z,99206.59
2023-02-27T07:17:36.032Z,99210.71
2023-02-27T07:20:25.477Z,99209.28
2023-02-27T07:22:59.866Z,99212.71
2023-02-27T07:25:47.462Z,99217.20
2023-02-27T07:28:22.058Z,99218.50
2023-02-27T07:31:10.546Z,99216.69
2023-02-27T07:33:51.444Z,99219.43
2023-02-27T07:36:47.618Z,99220.00
2023-02-27T07:39:35.447Z,99224.30
2023-02-27T07:42:16.864Z,99229.97
2023-02-27T07:44:58.463Z,99234.70
2023-02-27T07:47:39.619Z,99241.53
2023-02-27T07:50:20.456Z,99238.88
2023-02-27T07:53:01.654Z,99239.63
2023-02-27T07:55:43.550Z,99242.40
2023-02-27T07:58:31.488Z,99248.00
2023-02-27T08:01:06.009Z,99249.86
2023-02-27T08:03:54.451Z,99252.12
2023-02-27T08:06:29.354Z,99256.41
2023-02-27T08:09:17.470Z,99255.54
2023-02-27T08:11:54.450Z,99258.27
2023-02-27T08:14:42.559Z,99260.44
2023-02-27T08:17:23.459Z,99262.12
2023-02-27T08:20:11.511Z,99265.08
2023-02-27T08:22:52.848Z,99267.19
2023-02-27T08:25:34.601Z,99264.60
2023-02-27T08:28:15.451Z,99267.63
2023-02-27T08:31:03.568Z,99270.54
2023-02-27T08:34:09.536Z,99276.96
2023-02-27T08:37:06.446Z,99282.55
2023-02-27T08:40:01.451Z,99284.89
2023-02-27T08:42:49.465Z,99285.52
2023-02-27T08:45:24.595Z,99284.77
2023-02-27T08:48:12.586Z,99284.84
2023-02-27T08:50:47.804Z,99287.80
2023-02-27T08:53:36.472Z,99288.79
2023-02-27T08:56:11.700Z,99292.25
2023-02-27T08:58:59.524Z,99295.00
2023-02-27T09:01:41.521Z,99297.27
2023-02-27T09:04:29.436Z,99297.86
2023-02-27T09:07:04.618Z,99303.48
2023-02-27T09:09:52.441Z,99302.44
2023-02-27T09:12:27.590Z,99303.83
2023-02-27T09:15:16.441Z,99308.27
2023-02-27T09:17:58.440Z,99313.51
2023-02-27T09:20:53.528Z,99313.41
2023-02-27T09:23:41.444Z,99320.47
2023-02-27T09:26:17.278Z,99322.36
2023-02-27T09:29:05.449Z,99326.20
2023-02-27T09:31:40.632Z,99332.85
2023-02-27T09:34:28.445Z,99334.77
2023-02-27T09:37:23.428Z,99340.02
2023-02-27T09:40:13.446Z,99341.05
2023-02-27T09:42:57.437Z,99344.52
2023-02-27T09:45:52.500Z,99353.83
2023-02-27T09:48:48.562Z,99359.22
2023-02-27T09:51:24.769Z,99362.83
2023-02-27T09:54:12.446Z,99360.69
2023-02-27T09:56:53.613Z,99363.31
2023-02-27T09:59:47.450Z,99364.98
2023-02-27T10:02:55.728Z,99370.07
2023-02-27T10:05:58.929Z,99373.09
2023-02-27T10:08:54.427Z,99373.89
2023-02-27T10:12:14.028Z,99368.14
2023-02-27T10:15:06.481Z,99370.09
2023-02-27T10:17:51.447Z,99370.02
2023-02-27T10:20:37.643Z,99373.18
2023-02-27T10:23:26.421Z,99376.41
2023-02-27T10:26:14.436Z,99368.98
2023-02-27T10:28:48.858Z,99369.52
2023-02-27T10:31:44.457Z,99362.84
2023-02-27T10:34:25.435Z,99362.30
2023-02-27T10:37:21.475Z,99360.73
2023-02-27T10:40:19.470Z,99357.81
2023-02-27T10:43:08.488Z,99360.00
2023-02-27T10:45:44.103Z,99363.54
2023-02-27T10:48:32.501Z,99363.36
2023-02-27T10:51:34.474Z,99363.88
2023-02-27T10:54:32.427Z,99365.79
2023-02-27T10:57:26.444Z,99365.22
2023-02-27T11:00:12.707Z,99368.19
2023-02-27T11:03:01.694Z,99368.03
2023-02-27T11:05:40.254Z,99371.86
2023-02-27T11:08:32.525Z,99372.30
2023-02-27T11:11:16.580Z,99372.96
2023-02-27T11:14:26.517Z,99371.83
2023-02-27T11:17:13.929Z,99372.41
2023-02-27T11:20:09.411Z,99370.46
2023-02-27T11:23:12.555Z,99368.28
2023-02-27T11:26:02.411Z,99368.15
2023-02-27T11:28:36.964Z,99373.52
2023-02-27T11:31:35.587Z,99372.83
2023-02-27T11:34:25.408Z,99370.60
2023-02-27T11:37:32.425Z,99368.17
2023-02-27T11:40:30.430Z,99371.45
2023-02-27T11:43:28.431Z,99372.88
2023-02-27T11:46:30.211Z,99376.17
2023-02-27T11:49:31.437Z,99369.28
2023-02-27T11:52:33.559Z,99372.83
2023-02-27T11:55:24.420Z,99371.13
2023-02-27T11:58:12.549Z,99373.73
2023-02-27T12:01:38.221Z,99368.09
2023-02-27T12:04:27.949Z,99364.78
2023-02-27T12:07:37.465Z,99366.08
2023-02-27T12:10:18.837Z,99368.96
2023-02-27T12:13:28.400Z,99363.91
2023-02-27T12:16:24.647Z,99365.31
2023-02-27T12:19:51.613Z,99364.24
2023-02-27T12:22:26.548Z,99366.39
2023-02-27T12:25:20.623Z,99371.27
2023-02-27T12:28:02.621Z,99370.27
2023-02-27T12:31:08.572Z,99376.67
2023-02-27T12:34:07.552Z,99377.41
2023-02-27T12:37:02.428Z,99376.35
2023-02-27T12:39:58.402Z,99378.95
2023-02-27T12:43:02.612Z,99376.73
2023-02-27T12:45:56.051Z,99377.01
2023-02-27T12:48:44.406Z,99381.78
2023-02-27T12:51:48.386Z,99384.34
2023-02-27T12:54:49.401Z,99387.48
2023-02-27T12:57:54.424Z,99389.24
2023-02-27T13:00:38.412Z,99392.52
2023-02-27T13:03:43.458Z,99395.58
2023-02-27T13:06:39.417Z,99396.14
2023-02-27T13:09:47.403Z,99399.08
2023-02-27T13:12:57.424Z,99403.44
2023-02-27T13:15:58.409Z,99405.58
2023-02-27T13:18:58.384Z,99403.52
2023-02-27T13:22:08.611Z,99405.40
2023-02-27T13:24:58.604Z,99407.52
2023-02-27T13:27:40.062Z,99410.73
2023-02-27T13:30:32.499Z,99405.27
2023-02-27T13:33:14.614Z,99409.83
2023-02-27T13:36:24.723Z,99406.89
2023-02-27T13:39:50.414Z,99402.18
2023-02-27T13:42:34.549Z,99402.41
2023-02-27T13:45:55.542Z,99401.31
2023-02-27T13:48:53.929Z,99400.10
2023-02-27T13:51:53.400Z,99401.17
2023-02-27T13:54:28.553Z,99401.02
2023-02-27T13:57:40.373Z,99399.80
2023-02-27T14:00:24.222Z,99402.47
2023-02-27T14:03:18.548Z,99405.02
2023-02-27T14:05:54.505Z,99404.45
2023-02-27T14:08:46.391Z,99403.16
2023-02-27T14:11:29.123Z,99408.39
2023-02-27T14:14:18.449Z,99409.52
2023-02-27T14:17:00.378Z,99414.42
2023-02-27T14:19:48.522Z,99421.63
2023-02-27T14:22:37.381Z,99425.81
2023-02-27T14:25:35.392Z,99427.20
2023-02-27T14:28:30.469Z,99426.74
2023-02-27T14:31:21.403Z,99426.64
2023-02-27T14:34:03.389Z,99428.97
2023-02-27T14:37:03.568Z,99433.49
2023-02-27T14:40:03.126Z,99434.31
2023-02-27T14:43:10.581Z,99434.83
2023-02-27T14:45:45.638Z,99437.85
2023-02-27T14:48:34.388Z,99438.14
2023-02-27T14:51:16.393Z,99442.05
2023-02-27T14:54:26.593Z,99444.77
2023-02-27T14:57:20.401Z,99448.30
2023-02-27T14:59:57.522Z,99453.65
2023-02-27T15:02:45.376Z,99452.75
2023-02-27T15:05:22.530Z,99459.75
2023-02-27T15:08:10.376Z,99456.66
2023-02-27T15:10:48.604Z,99463.39
2023-02-27T15:13:39.382Z,99462.94
2023-02-27T15:16:40.494Z,99463.70
2023-02-27T15:19:40.388Z,99462.11
2023-02-27T15:22:39.930Z,99463.02
2023-02-27T15:25:47.536Z,99468.75
2023-02-27T15:28:49.371Z,99470.16
2023-02-27T15:31:38.450Z,99471.55
2023-02-27T15:34:25.382Z,99469.61
2023-02-27T15:37:20.389Z,99472.70
2023-02-27T15:40:15.380Z,99476.87
2023-02-27T15:43:04.392Z,99484.19
2023-02-27T15:45:52.376Z,99488.20
2023-02-27T15:48:27.094Z,99490.83
2023-02-27T15:51:17.382Z,99492.52
2023-02-27T15:54:01.361Z,99494.92
2023-02-27T15:56:44.563Z,99501.33
2023-02-27T15:59:26.358Z,99507.65
2023-02-27T16:02:14.391Z,99512.06
2023-02-27T16:04:49.430Z,99516.64
2023-02-27T16:07:40.381Z,99518.81
2023-02-27T16:10:28.398Z,99522.41
2023-02-27T16:13:47.368Z,99524.63
2023-02-27T16:16:23.311Z,99525.60
2023-02-27T16:19:07.364Z,99529.45
2023-02-27T16:21:42.491Z,99531.79
2023-02-27T16:24:28.465Z,99535.73
2023-02-27T16:27:09.496Z,99542.44
2023-02-27T16:29:51.388Z,99545.23
2023-02-27T16:32:50.569Z,99542.05
2023-02-27T16:35:41.627Z,99547.61
2023-02-27T16:38:30.508Z,99554.85
2023-02-27T16:41:05.603Z,99560.54
2023-02-27T16:43:54.355Z,99562.52
2023-02-27T16:46:36.527Z,99564.82
2023-02-27T16:49:35.378Z,99569.30
2023-02-27T16:52:18.488Z,99570.91
2023-02-27T16:54:59.382Z,99577.54
2023-02-27T16:57:40.543Z,99582.09
2023-02-27T17:00:22.637Z,99584.75
2023-02-27T17:03:04.803Z,99589.80
2023-02-27T17:05:46.393Z,99588.23
2023-02-27T17:08:27.514Z,99586.95
2023-02-27T17:11:10.373Z,99591.96
2023-02-27T17:13:58.386Z,99596.15
2023-02-27T17:16:35.623Z,99601.02
2023-02-27T17:19:28.348Z,99601.30
2023-02-27T17:22:03.442Z,99601.14
2023-02-27T17:24:52.346Z,99602.77
2023-02-27T17:27:33.369Z,99604.66
2023-02-27T17:30:15.560Z,99607.05
2023-02-27T17:32:59.745Z,99606.34
2023-02-27T17:35:55.444Z,99607.41
2023-02-27T17:38:44.369Z,99614.68
2023-02-27T17:41:20.499Z,99615.45
2023-02-27T17:44:10.362Z,99614.09
2023-02-27T17:46:52.300Z,99615.50
2023-02-27T17:49:33.377Z,99619.55
2023-02-27T17:52:15.488Z,99624.93
2023-02-27T17:54:56.596Z,99625.77
2023-02-27T17:57:49.346Z,99621.11
2023-02-27T18:00:23.992Z,99624.73
2023-02-27T18:03:39.655Z,99626.83
2023-02-27T18:06:26.596Z,99627.98
2023-02-27T18:09:17.785Z,99631.44
2023-02-27T18:12:00.597Z,99632.80
2023-02-27T18:15:05.813Z,99638.23
2023-02-27T18:21:16.416Z,99640.85
2023-02-27T18:23:52.312Z,99642.98
2023-02-27T18:26:57.517Z,99645.81
2023-02-27T18:29:36.935Z,99646.25
2023-02-27T18:32:36.411Z,99646.17
2023-02-27T18:35:52.738Z,99650.83
2023-02-27T18:39:30.165Z,99660.52
2023-02-27T18:42:31.235Z,99662.73
2023-02-27T18:45:23.373Z,99665.52
2023-02-27T18:48:18.384Z,99667.98
2023-02-27T18:51:12.416Z,99670.42
2023-02-27T18:53:48.553Z,99675.02
2023-02-27T18:56:53.853Z,99675.48
2023-02-27T18:59:36.187Z,99676.06
2023-02-27T19:02:29.451Z,99677.32
2023-02-27T19:05:18.362Z,99678.05
2023-02-27T19:08:51.915Z,99683.59
2023-02-27T19:11:42.464Z,99682.41
2023-02-27T19:14:22.654Z,99686.16
2023-02-27T19:17:10.554Z,99692.96
2023-02-27T19:19:55.267Z,99695.24
2023-02-27T19:22:46.611Z,99698.27
2023-02-27T19:25:30.380Z,99700.25
2023-02-27T19:28:51.662Z,99703.39
2023-02-27T19:31:40.690Z,99708.69
2023-02-27T19:34:30.927Z,99708.47
2023-02-27T19:37:09.054Z,99709.08
2023-02-27T19:39:58.357Z,99710.45
2023-02-27T19:42:33.635Z,99714.17
2023-02-27T19:45:22.656Z,99713.06
2023-02-27T19:48:03.789Z,99712.96
2023-02-27T19:50:48.984Z,99712.49
2023-02-27T19:53:31.850Z,99714.42
2023-02-27T19:56:17.033Z,99715.85
2023-02-27T19:59:06.686Z,99716.04
2023-02-27T20:01:48.316Z,99718.12
2023-02-27T20:04:38.998Z,99719.04
2023-02-27T20:07:36.626Z,99717.39
2023-02-27T20:10:26.332Z,99717.98
2023-02-27T20:13:01.522Z,99716.77
2023-02-27T20:15:49.471Z,99719.05
2023-02-27T20:18:27.728Z,99723.61
2023-02-27T20:21:22.348Z,99725.60
2023-02-27T20:24:04.700Z,99725.59
2023-02-27T20:27:04.532Z,99729.33
2023-02-27T20:29:52.354Z,99733.69
2023-02-27T20:32:31.474Z,99733.75
2023-02-27T20:35:22.416Z,99736.66
2023-02-27T20:38:05.329Z,99732.98
2023-02-27T20:40:48.024Z,99736.63
2023-02-27T20:43:40.823Z,99737.64
2023-02-27T20:46:25.315Z,99738.91
2023-02-27T20:49:15.331Z,99736.98
2023-02-27T20:51:49.783Z,99739.90
2023-02-27T20:54:37.468Z,99744.06
2023-02-27T20:57:11.737Z,99748.70
2023-02-27T21:00:00.323Z,99748.70
2023-02-27T21:02:36.084Z,99747.15
2023-02-27T21:05:24.378Z,99745.58
2023-02-27T21:07:59.937Z,99745.26
2023-02-27T21:10:53.321Z,99741.13
2023-02-27T21:13:35.321Z,99742.00
2023-02-27T21:16:18.175Z,99745.80
2023-02-27T21:19:00.321Z,99745.84
2023-02-27T21:21:43.026Z,99745.09
2023-02-27T21:24:25.506Z,99746.51
2023-02-27T21:27:07.493Z,99747.77
2023-02-27T21:29:48.319Z,99753.44
2023-02-27T21:32:36.322Z,99751.92
2023-02-27T21:35:11.388Z,99755.06
2023-02-27T21:37:59.311Z,99754.73
2023-02-27T21:40:40.592Z,99753.11
2023-02-27T21:43:21.989Z,99754.58
2023-02-27T21:46:03.407Z,99755.47
2023-02-27T21:48:45.808Z,99757.90
2023-02-27T21:51:39.239Z,99759.04
2023-02-27T21:54:22.770Z,99752.79
2023-02-27T21:57:08.303Z,99755.46
2023-02-27T21:59:49.685Z,99758.50
2023-02-27T22:02:31.396Z,99761.52
2023-02-27T22:05:20.308Z,99764.82
2023-02-27T22:08:15.310Z,99764.54
2023-02-27T22:11:07.365Z,99767.14
2023-02-27T22:13:49.336Z,99765.91
2023-02-27T22:16:44.346Z,99769.00
2023-02-27T22:19:32.298Z,99769.84
2023-02-27T22:22:09.101Z,99771.60
2023-02-27T22:24:57.292Z,99769.98
2023-02-27T22:27:39.298Z,99767.99
2023-02-27T22:30:34.297Z,99770.70
2023-02-27T22:33:22.323Z,99773.43
2023-02-27T22:36:08.319Z,99775.48
2023-02-27T22:39:03.277Z,99778.13
2023-02-27T22:41:52.304Z,99779.23
2023-02-27T22:44:33.783Z,99777.55
2023-02-27T22:47:16.308Z,99777.49
2023-02-27T22:49:58.785Z,99780.52
2023-02-27T22:52:44.317Z,99782.50
2023-02-27T22:55:32.478Z,99783.48
2023-02-27T22:58:07.698Z,99782.77
2023-02-27T23:00:55.311Z,99781.12
2023-02-27T23:03:36.343Z,99784.15
2023-02-27T23:06:20.437Z,99783.08
2023-02-27T23:09:01.405Z,99788.09
2023-02-27T23:11:42.400Z,99792.48
2023-02-27T23:14:24.530Z,99791.60
2023-02-27T23:17:13.916Z,99794.40
2023-02-27T23:19:48.824Z,99794.02
2023-02-27T23:22:40.294Z,99791.94
2023-02-27T23:25:15.060Z,99791.75
2023-02-27T23:28:03.916Z,99792.21
2023-02-27T23:30:40.194Z,99790.91
2023-02-27T23:33:28.299Z,99787.16
2023-02-27T23:36:17.482Z,99794.70
2023-02-27T23:39:05.303Z,99798.40
2023-02-27T23:41:40.563Z,99798.12
2023-02-27T23:44:46.415Z,99796.56
2023-02-27T23:47:47.461Z,99800.14
2023-02-27T23:50:44.446Z,99800.25
2023-02-27T23:53:26.294Z,99800.27
2023-02-27T23:56:21.292Z,99800.80
2023-02-27T23:59:00.456Z,99800.01
